sensor_id;sensor_type;location;lat;lon;timestamp;P1;durP1;ratioP1;P2;durP2;ratioP2
78860;SDS011;68211;45.774;15.892;2023-05-10T00:00:04;6.97;;;5.38;;
78860;SDS011;68211;45.774;15.892;2023-05-10T00:02:30;6.57;;;5.50;;
78860;SDS011;68211;45.774;15.892;2023-05-10T00:04:57;6.75;;;5.07;;
78860;SDS011;68211;45.774;15.892;2023-05-10T00:07:25;8.70;;;4.97;;
78860;SDS011;68211;45.774;15.892;2023-05-10T00:09:51;6.00;;;5.35;;
78860;SDS011;68211;45.774;15.892;2023-05-10T00:12:17;9.32;;;5.43;;
78860;SDS011;68211;45.774;15.892;2023-05-10T00:14:44;7.13;;;5.60;;
78860;SDS011;68211;45.774;15.892;2023-05-10T00:17:10;7.30;;;5.30;;
78860;SDS011;68211;45.774;15.892;2023-05-10T00:19:37;6.85;;;5.85;;
78860;SDS011;68211;45.774;15.892;2023-05-10T00:22:03;6.15;;;5.53;;
78860;SDS011;68211;45.774;15.892;2023-05-10T00:24:31;6.07;;;5.47;;
78860;SDS011;68211;45.774;15.892;2023-05-10T00:26:57;7.25;;;5.55;;
78860;SDS011;68211;45.774;15.892;2023-05-10T00:29:24;12.88;;;5.78;;
78860;SDS011;68211;45.774;15.892;2023-05-10T00:31:50;10.30;;;5.55;;
78860;SDS011;68211;45.774;15.892;2023-05-10T00:34:16;10.50;;;6.50;;
78860;SDS011;68211;45.774;15.892;2023-05-10T00:36:43;8.88;;;6.05;;
78860;SDS011;68211;45.774;15.892;2023-05-10T00:39:09;8.43;;;6.30;;
78860;SDS011;68211;45.774;15.892;2023-05-10T00:41:37;7.65;;;5.70;;
78860;SDS011;68211;45.774;15.892;2023-05-10T00:44:03;12.35;;;6.00;;
78860;SDS011;68211;45.774;15.892;2023-05-10T00:46:30;7.07;;;6.38;;
78860;SDS011;68211;45.774;15.892;2023-05-10T00:48:56;6.22;;;5.68;;
78860;SDS011;68211;45.774;15.892;2023-05-10T00:51:23;7.88;;;5.90;;
78860;SDS011;68211;45.774;15.892;2023-05-10T00:53:49;9.45;;;5.70;;
78860;SDS011;68211;45.774;15.892;2023-05-10T00:56:16;8.13;;;5.50;;
78860;SDS011;68211;45.774;15.892;2023-05-10T00:58:44;6.25;;;5.65;;
78860;SDS011;68211;45.774;15.892;2023-05-10T01:01:10;5.88;;;5.38;;
78860;SDS011;68211;45.774;15.892;2023-05-10T01:03:37;6.88;;;6.28;;
78860;SDS011;68211;45.774;15.892;2023-05-10T01:06:06;8.85;;;6.00;;
78860;SDS011;68211;45.774;15.892;2023-05-10T01:08:32;6.32;;;5.72;;
78860;SDS011;68211;45.774;15.892;2023-05-10T01:10:58;6.40;;;5.80;;
78860;SDS011;68211;45.774;15.892;2023-05-10T01:13:29;6.15;;;5.65;;
78860;SDS011;68211;45.774;15.892;2023-05-10T01:15:58;6.10;;;5.50;;
78860;SDS011;68211;45.774;15.892;2023-05-10T01:18:24;8.07;;;5.72;;
78860;SDS011;68211;45.774;15.892;2023-05-10T01:20:53;7.68;;;5.90;;
78860;SDS011;68211;45.774;15.892;2023-05-10T01:23:31;6.90;;;6.07;;
78860;SDS011;68211;45.774;15.892;2023-05-10T01:28:49;5.93;;;5.28;;
78860;SDS011;68211;45.774;15.892;2023-05-10T01:31:25;5.32;;;4.82;;
78860;SDS011;68211;45.774;15.892;2023-05-10T01:33:57;7.28;;;5.53;;
78860;SDS011;68211;45.774;15.892;2023-05-10T01:36:26;6.53;;;5.38;;
78860;SDS011;68211;45.774;15.892;2023-05-10T01:38:55;5.90;;;5.32;;
78860;SDS011;68211;45.774;15.892;2023-05-10T01:41:24;6.82;;;5.70;;
78860;SDS011;68211;45.774;15.892;2023-05-10T01:43:56;9.07;;;5.65;;
78860;SDS011;68211;45.774;15.892;2023-05-10T01:48:51;7.85;;;5.80;;
78860;SDS011;68211;45.774;15.892;2023-05-10T01:51:21;8.45;;;5.43;;
78860;SDS011;68211;45.774;15.892;2023-05-10T01:53:49;11.02;;;5.97;;
78860;SDS011;68211;45.774;15.892;2023-05-10T01:56:18;6.93;;;6.00;;
78860;SDS011;68211;45.774;15.892;2023-05-10T01:58:46;7.28;;;5.75;;
78860;SDS011;68211;45.774;15.892;2023-05-10T02:01:14;11.00;;;5.68;;
78860;SDS011;68211;45.774;15.892;2023-05-10T02:03:41;8.55;;;5.38;;
78860;SDS011;68211;45.774;15.892;2023-05-10T02:06:09;7.53;;;5.30;;
78860;SDS011;68211;45.774;15.892;2023-05-10T02:08:38;5.72;;;5.22;;
78860;SDS011;68211;45.774;15.892;2023-05-10T02:11:06;9.55;;;5.75;;
78860;SDS011;68211;45.774;15.892;2023-05-10T02:13:33;10.90;;;5.60;;
78860;SDS011;68211;45.774;15.892;2023-05-10T02:16:01;6.72;;;5.15;;
78860;SDS011;68211;45.774;15.892;2023-05-10T02:18:27;5.90;;;5.32;;
78860;SDS011;68211;45.774;15.892;2023-05-10T02:20:54;9.07;;;5.45;;
78860;SDS011;68211;45.774;15.892;2023-05-10T02:23:21;5.95;;;5.35;;
78860;SDS011;68211;45.774;15.892;2023-05-10T02:25:50;6.65;;;5.70;;
78860;SDS011;68211;45.774;15.892;2023-05-10T02:28:17;7.20;;;5.53;;
78860;SDS011;68211;45.774;15.892;2023-05-10T02:30:44;8.65;;;6.03;;
78860;SDS011;68211;45.774;15.892;2023-05-10T02:33:10;9.52;;;5.97;;
78860;SDS011;68211;45.774;15.892;2023-05-10T02:35:37;6.07;;;5.35;;
78860;SDS011;68211;45.774;15.892;2023-05-10T02:38:04;10.13;;;5.63;;
78860;SDS011;68211;45.774;15.892;2023-05-10T02:40:30;6.72;;;5.82;;
78860;SDS011;68211;45.774;15.892;2023-05-10T02:42:59;9.48;;;5.47;;
78860;SDS011;68211;45.774;15.892;2023-05-10T02:45:28;6.13;;;5.40;;
78860;SDS011;68211;45.774;15.892;2023-05-10T02:47:55;6.80;;;5.20;;
78860;SDS011;68211;45.774;15.892;2023-05-10T02:50:22;6.32;;;5.30;;
78860;SDS011;68211;45.774;15.892;2023-05-10T02:52:51;7.38;;;5.22;;
78860;SDS011;68211;45.774;15.892;2023-05-10T02:55:19;7.30;;;5.50;;
78860;SDS011;68211;45.774;15.892;2023-05-10T02:57:48;9.23;;;5.43;;
78860;SDS011;68211;45.774;15.892;2023-05-10T03:00:18;7.63;;;5.07;;
78860;SDS011;68211;45.774;15.892;2023-05-10T03:02:45;5.97;;;5.40;;
78860;SDS011;68211;45.774;15.892;2023-05-10T03:05:11;6.38;;;5.18;;
78860;SDS011;68211;45.774;15.892;2023-05-10T03:07:38;6.22;;;5.30;;
78860;SDS011;68211;45.774;15.892;2023-05-10T03:10:05;5.65;;;5.15;;
78860;SDS011;68211;45.774;15.892;2023-05-10T03:12:33;6.72;;;5.60;;
78860;SDS011;68211;45.774;15.892;2023-05-10T03:15:03;6.13;;;5.53;;
78860;SDS011;68211;45.774;15.892;2023-05-10T03:17:45;5.90;;;5.40;;
78860;SDS011;68211;45.774;15.892;2023-05-10T03:20:16;5.13;;;4.63;;
78860;SDS011;68211;45.774;15.892;2023-05-10T03:22:47;6.28;;;5.43;;
78860;SDS011;68211;45.774;15.892;2023-05-10T03:25:13;6.13;;;5.22;;
78860;SDS011;68211;45.774;15.892;2023-05-10T03:27:41;5.05;;;4.65;;
78860;SDS011;68211;45.774;15.892;2023-05-10T03:30:09;6.55;;;4.88;;
78860;SDS011;68211;45.774;15.892;2023-05-10T03:32:37;5.75;;;5.10;;
78860;SDS011;68211;45.774;15.892;2023-05-10T03:35:06;6.70;;;5.35;;
78860;SDS011;68211;45.774;15.892;2023-05-10T03:37:32;7.68;;;5.03;;
78860;SDS011;68211;45.774;15.892;2023-05-10T03:39:58;5.78;;;5.18;;
78860;SDS011;68211;45.774;15.892;2023-05-10T03:42:25;10.07;;;5.40;;
78860;SDS011;68211;45.774;15.892;2023-05-10T03:44:51;9.50;;;5.35;;
78860;SDS011;68211;45.774;15.892;2023-05-10T03:47:18;7.00;;;5.28;;
78860;SDS011;68211;45.774;15.892;2023-05-10T03:49:45;7.75;;;5.53;;
78860;SDS011;68211;45.774;15.892;2023-05-10T03:52:12;5.53;;;4.70;;
78860;SDS011;68211;45.774;15.892;2023-05-10T03:54:38;5.95;;;5.13;;
78860;SDS011;68211;45.774;15.892;2023-05-10T03:57:05;8.90;;;4.78;;
78860;SDS011;68211;45.774;15.892;2023-05-10T03:59:31;10.70;;;5.38;;
78860;SDS011;68211;45.774;15.892;2023-05-10T04:01:57;8.18;;;5.25;;
78860;SDS011;68211;45.774;15.892;2023-05-10T04:04:24;5.55;;;5.03;;
78860;SDS011;68211;45.774;15.892;2023-05-10T04:06:52;6.88;;;4.88;;
78860;SDS011;68211;45.774;15.892;2023-05-10T04:09:18;6.22;;;5.05;;
78860;SDS011;68211;45.774;15.892;2023-05-10T04:11:44;11.13;;;4.18;;
78860;SDS011;68211;45.774;15.892;2023-05-10T04:14:11;5.95;;;5.13;;
78860;SDS011;68211;45.774;15.892;2023-05-10T04:16:37;5.57;;;4.85;;
78860;SDS011;68211;45.774;15.892;2023-05-10T04:19:04;8.02;;;5.07;;
78860;SDS011;68211;45.774;15.892;2023-05-10T04:21:31;7.95;;;5.03;;
78860;SDS011;68211;45.774;15.892;2023-05-10T04:23:58;8.98;;;4.70;;
78860;SDS011;68211;45.774;15.892;2023-05-10T04:26:25;7.07;;;4.75;;
78860;SDS011;68211;45.774;15.892;2023-05-10T04:28:51;8.13;;;4.93;;
78860;SDS011;68211;45.774;15.892;2023-05-10T04:31:18;6.03;;;4.53;;
78860;SDS011;68211;45.774;15.892;2023-05-10T04:33:44;7.07;;;4.55;;
78860;SDS011;68211;45.774;15.892;2023-05-10T04:36:10;5.07;;;4.68;;
78860;SDS011;68211;45.774;15.892;2023-05-10T04:38:37;8.82;;;4.35;;
78860;SDS011;68211;45.774;15.892;2023-05-10T04:41:05;5.07;;;4.28;;
78860;SDS011;68211;45.774;15.892;2023-05-10T04:43:31;6.93;;;4.53;;
78860;SDS011;68211;45.774;15.892;2023-05-10T04:45:58;7.85;;;4.47;;
78860;SDS011;68211;45.774;15.892;2023-05-10T04:48:24;9.93;;;4.30;;
78860;SDS011;68211;45.774;15.892;2023-05-10T04:50:50;7.72;;;4.10;;
78860;SDS011;68211;45.774;15.892;2023-05-10T04:53:17;8.00;;;4.20;;
78860;SDS011;68211;45.774;15.892;2023-05-10T04:55:43;5.20;;;4.03;;
78860;SDS011;68211;45.774;15.892;2023-05-10T04:58:11;4.97;;;4.10;;
78860;SDS011;68211;45.774;15.892;2023-05-10T05:00:37;6.85;;;4.18;;
78860;SDS011;68211;45.774;15.892;2023-05-10T05:03:04;6.88;;;4.22;;
78860;SDS011;68211;45.774;15.892;2023-05-10T05:05:30;4.75;;;3.92;;
78860;SDS011;68211;45.774;15.892;2023-05-10T05:07:57;5.07;;;4.55;;
78860;SDS011;68211;45.774;15.892;2023-05-10T05:10:23;8.55;;;3.83;;
78860;SDS011;68211;45.774;15.892;2023-05-10T05:12:49;5.60;;;4.40;;
78860;SDS011;68211;45.774;15.892;2023-05-10T05:15:18;9.18;;;4.75;;
78860;SDS011;68211;45.774;15.892;2023-05-10T05:17:44;7.57;;;4.50;;
78860;SDS011;68211;45.774;15.892;2023-05-10T05:20:10;10.57;;;6.07;;
78860;SDS011;68211;45.774;15.892;2023-05-10T05:22:37;7.82;;;4.22;;
78860;SDS011;68211;45.774;15.892;2023-05-10T05:25:04;11.23;;;4.50;;
78860;SDS011;68211;45.774;15.892;2023-05-10T05:27:31;8.88;;;4.55;;
78860;SDS011;68211;45.774;15.892;2023-05-10T05:29:57;7.45;;;4.05;;
78860;SDS011;68211;45.774;15.892;2023-05-10T05:32:25;9.68;;;4.35;;
78860;SDS011;68211;45.774;15.892;2023-05-10T05:34:51;8.60;;;4.68;;
78860;SDS011;68211;45.774;15.892;2023-05-10T05:37:18;5.75;;;4.10;;
78860;SDS011;68211;45.774;15.892;2023-05-10T05:39:45;7.38;;;4.22;;
78860;SDS011;68211;45.774;15.892;2023-05-10T05:42:12;11.35;;;4.60;;
78860;SDS011;68211;45.774;15.892;2023-05-10T05:44:39;7.68;;;4.53;;
78860;SDS011;68211;45.774;15.892;2023-05-10T05:47:05;52.97;;;6.47;;
78860;SDS011;68211;45.774;15.892;2023-05-10T05:49:33;28.98;;;6.00;;
78860;SDS011;68211;45.774;15.892;2023-05-10T05:52:00;37.55;;;5.60;;
78860;SDS011;68211;45.774;15.892;2023-05-10T05:54:26;33.40;;;5.35;;
78860;SDS011;68211;45.774;15.892;2023-05-10T05:56:53;18.80;;;4.88;;
78860;SDS011;68211;45.774;15.892;2023-05-10T05:59:20;15.82;;;4.70;;
78860;SDS011;68211;45.774;15.892;2023-05-10T06:01:46;14.10;;;4.53;;
78860;SDS011;68211;45.774;15.892;2023-05-10T06:04:12;10.43;;;4.80;;
78860;SDS011;68211;45.774;15.892;2023-05-10T06:06:40;16.92;;;4.80;;
78860;SDS011;68211;45.774;15.892;2023-05-10T06:09:07;13.82;;;4.60;;
78860;SDS011;68211;45.774;15.892;2023-05-10T06:11:33;12.75;;;4.53;;
78860;SDS011;68211;45.774;15.892;2023-05-10T06:14:00;10.60;;;4.55;;
78860;SDS011;68211;45.774;15.892;2023-05-10T06:16:26;9.43;;;3.88;;
78860;SDS011;68211;45.774;15.892;2023-05-10T06:18:53;4.20;;;3.80;;
78860;SDS011;68211;45.774;15.892;2023-05-10T06:21:19;9.27;;;4.38;;
78860;SDS011;68211;45.774;15.892;2023-05-10T06:23:47;8.30;;;4.22;;
78860;SDS011;68211;45.774;15.892;2023-05-10T06:26:13;9.88;;;4.20;;
78860;SDS011;68211;45.774;15.892;2023-05-10T06:28:40;8.25;;;4.18;;
78860;SDS011;68211;45.774;15.892;2023-05-10T06:31:06;9.40;;;4.40;;
78860;SDS011;68211;45.774;15.892;2023-05-10T06:33:32;6.90;;;4.35;;
78860;SDS011;68211;45.774;15.892;2023-05-10T06:35:59;9.50;;;4.10;;
78860;SDS011;68211;45.774;15.892;2023-05-10T06:38:25;7.68;;;4.60;;
78860;SDS011;68211;45.774;15.892;2023-05-10T06:40:53;4.10;;;3.70;;
78860;SDS011;68211;45.774;15.892;2023-05-10T06:43:19;6.70;;;4.00;;
78860;SDS011;68211;45.774;15.892;2023-05-10T06:45:47;8.43;;;4.38;;
78860;SDS011;68211;45.774;15.892;2023-05-10T06:48:13;10.65;;;4.65;;
78860;SDS011;68211;45.774;15.892;2023-05-10T06:50:40;9.98;;;4.60;;
78860;SDS011;68211;45.774;15.892;2023-05-10T06:53:06;8.60;;;4.90;;
78860;SDS011;68211;45.774;15.892;2023-05-10T06:55:33;11.57;;;4.78;;
78860;SDS011;68211;45.774;15.892;2023-05-10T06:58:00;7.32;;;4.40;;
78860;SDS011;68211;45.774;15.892;2023-05-10T07:00:27;7.50;;;4.53;;
78860;SDS011;68211;45.774;15.892;2023-05-10T07:02:53;4.63;;;4.20;;
78860;SDS011;68211;45.774;15.892;2023-05-10T07:05:20;4.97;;;4.47;;
78860;SDS011;68211;45.774;15.892;2023-05-10T07:07:47;10.65;;;4.72;;
78860;SDS011;68211;45.774;15.892;2023-05-10T07:10:13;7.47;;;4.18;;
78860;SDS011;68211;45.774;15.892;2023-05-10T07:12:40;5.53;;;4.05;;
78860;SDS011;68211;45.774;15.892;2023-05-10T07:15:08;5.47;;;4.40;;
78860;SDS011;68211;45.774;15.892;2023-05-10T07:17:35;6.93;;;4.53;;
78860;SDS011;68211;45.774;15.892;2023-05-10T07:20:02;9.65;;;4.18;;
78860;SDS011;68211;45.774;15.892;2023-05-10T07:22:28;6.75;;;4.68;;
78860;SDS011;68211;45.774;15.892;2023-05-10T07:24:55;6.68;;;4.35;;
78860;SDS011;68211;45.774;15.892;2023-05-10T07:27:21;4.78;;;4.38;;
78860;SDS011;68211;45.774;15.892;2023-05-10T07:29:47;8.52;;;4.75;;
78860;SDS011;68211;45.774;15.892;2023-05-10T07:32:15;5.28;;;4.45;;
78860;SDS011;68211;45.774;15.892;2023-05-10T07:34:42;6.75;;;4.30;;
78860;SDS011;68211;45.774;15.892;2023-05-10T07:37:08;9.90;;;4.60;;
78860;SDS011;68211;45.774;15.892;2023-05-10T07:39:34;10.45;;;4.40;;
78860;SDS011;68211;45.774;15.892;2023-05-10T07:42:01;12.85;;;4.75;;
78860;SDS011;68211;45.774;15.892;2023-05-10T07:44:27;12.02;;;5.13;;
78860;SDS011;68211;45.774;15.892;2023-05-10T07:46:54;5.30;;;4.22;;
78860;SDS011;68211;45.774;15.892;2023-05-10T07:49:21;9.30;;;4.45;;
78860;SDS011;68211;45.774;15.892;2023-05-10T07:51:48;5.63;;;4.22;;
78860;SDS011;68211;45.774;15.892;2023-05-10T07:54:14;7.30;;;4.72;;
78860;SDS011;68211;45.774;15.892;2023-05-10T07:56:41;9.98;;;5.20;;
78860;SDS011;68211;45.774;15.892;2023-05-10T07:59:07;4.80;;;4.13;;
78860;SDS011;68211;45.774;15.892;2023-05-10T08:01:37;6.90;;;4.07;;
78860;SDS011;68211;45.774;15.892;2023-05-10T08:04:03;5.50;;;4.20;;
78860;SDS011;68211;45.774;15.892;2023-05-10T08:06:31;4.90;;;4.50;;
78860;SDS011;68211;45.774;15.892;2023-05-10T08:08:58;4.78;;;3.60;;
78860;SDS011;68211;45.774;15.892;2023-05-10T08:11:24;5.60;;;3.58;;
78860;SDS011;68211;45.774;15.892;2023-05-10T08:13:51;7.40;;;4.20;;
78860;SDS011;68211;45.774;15.892;2023-05-10T08:16:20;11.25;;;3.88;;
78860;SDS011;68211;45.774;15.892;2023-05-10T08:18:47;3.80;;;3.50;;
78860;SDS011;68211;45.774;15.892;2023-05-10T08:21:14;6.47;;;4.10;;
78860;SDS011;68211;45.774;15.892;2023-05-10T08:23:41;4.72;;;4.20;;
78860;SDS011;68211;45.774;15.892;2023-05-10T08:26:08;5.25;;;4.38;;
78860;SDS011;68211;45.774;15.892;2023-05-10T08:28:34;5.80;;;3.95;;
78860;SDS011;68211;45.774;15.892;2023-05-10T08:31:01;4.50;;;3.47;;
78860;SDS011;68211;45.774;15.892;2023-05-10T08:33:31;4.65;;;3.80;;
78860;SDS011;68211;45.774;15.892;2023-05-10T08:36:00;8.10;;;3.97;;
78860;SDS011;68211;45.774;15.892;2023-05-10T08:38:29;5.35;;;3.40;;
78860;SDS011;68211;45.774;15.892;2023-05-10T08:40:57;4.85;;;3.42;;
78860;SDS011;68211;45.774;15.892;2023-05-10T08:43:28;4.88;;;3.40;;
78860;SDS011;68211;45.774;15.892;2023-05-10T08:45:55;6.82;;;3.83;;
78860;SDS011;68211;45.774;15.892;2023-05-10T08:48:22;3.92;;;3.28;;
78860;SDS011;68211;45.774;15.892;2023-05-10T08:50:49;4.72;;;3.33;;
78860;SDS011;68211;45.774;15.892;2023-05-10T08:53:17;6.45;;;3.70;;
78860;SDS011;68211;45.774;15.892;2023-05-10T08:55:45;5.10;;;3.58;;
78860;SDS011;68211;45.774;15.892;2023-05-10T08:58:13;7.13;;;4.05;;
78860;SDS011;68211;45.774;15.892;2023-05-10T09:00:40;5.53;;;3.22;;
78860;SDS011;68211;45.774;15.892;2023-05-10T09:03:06;11.68;;;4.13;;
78860;SDS011;68211;45.774;15.892;2023-05-10T09:05:33;4.47;;;3.95;;
78860;SDS011;68211;45.774;15.892;2023-05-10T09:07:59;6.07;;;3.75;;
78860;SDS011;68211;45.774;15.892;2023-05-10T09:10:26;6.38;;;3.53;;
78860;SDS011;68211;45.774;15.892;2023-05-10T09:12:53;4.82;;;3.92;;
78860;SDS011;68211;45.774;15.892;2023-05-10T09:15:26;6.45;;;3.75;;
78860;SDS011;68211;45.774;15.892;2023-05-10T09:17:52;8.40;;;4.30;;
78860;SDS011;68211;45.774;15.892;2023-05-10T09:20:19;5.35;;;3.40;;
78860;SDS011;68211;45.774;15.892;2023-05-10T09:22:45;5.90;;;3.17;;
78860;SDS011;68211;45.774;15.892;2023-05-10T09:25:12;7.57;;;3.58;;
78860;SDS011;68211;45.774;15.892;2023-05-10T09:27:40;4.80;;;3.20;;
78860;SDS011;68211;45.774;15.892;2023-05-10T09:30:07;5.03;;;3.47;;
78860;SDS011;68211;45.774;15.892;2023-05-10T09:32:39;3.75;;;3.40;;
78860;SDS011;68211;45.774;15.892;2023-05-10T09:35:06;7.88;;;3.55;;
78860;SDS011;68211;45.774;15.892;2023-05-10T09:37:33;5.93;;;3.45;;
78860;SDS011;68211;45.774;15.892;2023-05-10T09:39:59;7.10;;;3.40;;
78860;SDS011;68211;45.774;15.892;2023-05-10T09:42:26;4.10;;;3.72;;
78860;SDS011;68211;45.774;15.892;2023-05-10T09:44:52;7.53;;;3.40;;
78860;SDS011;68211;45.774;15.892;2023-05-10T09:47:19;4.65;;;3.58;;
78860;SDS011;68211;45.774;15.892;2023-05-10T09:49:50;4.78;;;3.40;;
78860;SDS011;68211;45.774;15.892;2023-05-10T09:52:18;9.70;;;3.40;;
78860;SDS011;68211;45.774;15.892;2023-05-10T09:54:45;5.82;;;3.30;;
78860;SDS011;68211;45.774;15.892;2023-05-10T09:57:19;4.90;;;3.50;;
78860;SDS011;68211;45.774;15.892;2023-05-10T09:59:46;4.13;;;3.47;;
78860;SDS011;68211;45.774;15.892;2023-05-10T10:02:13;7.32;;;3.22;;
78860;SDS011;68211;45.774;15.892;2023-05-10T10:04:39;5.15;;;3.47;;
78860;SDS011;68211;45.774;15.892;2023-05-10T10:07:08;3.70;;;3.40;;
78860;SDS011;68211;45.774;15.892;2023-05-10T10:09:34;3.80;;;3.10;;
78860;SDS011;68211;45.774;15.892;2023-05-10T10:12:01;10.18;;;3.90;;
78860;SDS011;68211;45.774;15.892;2023-05-10T10:14:30;7.93;;;3.92;;
78860;SDS011;68211;45.774;15.892;2023-05-10T10:16:56;8.73;;;4.07;;
78860;SDS011;68211;45.774;15.892;2023-05-10T10:19:34;7.20;;;4.18;;
78860;SDS011;68211;45.774;15.892;2023-05-10T10:22:01;6.60;;;3.90;;
78860;SDS011;68211;45.774;15.892;2023-05-10T10:24:28;4.45;;;3.47;;
78860;SDS011;68211;45.774;15.892;2023-05-10T10:26:56;5.55;;;3.67;;
78860;SDS011;68211;45.774;15.892;2023-05-10T10:29:23;6.72;;;3.50;;
78860;SDS011;68211;45.774;15.892;2023-05-10T10:31:55;4.28;;;3.80;;
78860;SDS011;68211;45.774;15.892;2023-05-10T10:34:27;4.30;;;3.55;;
78860;SDS011;68211;45.774;15.892;2023-05-10T10:36:54;4.15;;;3.80;;
78860;SDS011;68211;45.774;15.892;2023-05-10T10:39:22;5.85;;;3.60;;
78860;SDS011;68211;45.774;15.892;2023-05-10T10:41:50;4.50;;;3.67;;
78860;SDS011;68211;45.774;15.892;2023-05-10T10:44:24;4.72;;;3.30;;
78860;SDS011;68211;45.774;15.892;2023-05-10T10:47:07;3.50;;;3.20;;
78860;SDS011;68211;45.774;15.892;2023-05-10T10:49:37;6.10;;;3.20;;
78860;SDS011;68211;45.774;15.892;2023-05-10T10:52:13;4.07;;;3.42;;
78860;SDS011;68211;45.774;15.892;2023-05-10T10:54:39;4.60;;;3.33;;
78860;SDS011;68211;45.774;15.892;2023-05-10T10:57:13;4.60;;;3.03;;
78860;SDS011;68211;45.774;15.892;2023-05-10T10:59:43;4.18;;;3.13;;
78860;SDS011;68211;45.774;15.892;2023-05-10T11:02:10;13.77;;;3.05;;
78860;SDS011;68211;45.774;15.892;2023-05-10T11:04:41;3.45;;;3.03;;
78860;SDS011;68211;45.774;15.892;2023-05-10T11:07:16;4.22;;;3.30;;
78860;SDS011;68211;45.774;15.892;2023-05-10T11:09:43;9.30;;;3.50;;
78860;SDS011;68211;45.774;15.892;2023-05-10T11:12:09;10.25;;;3.10;;
78860;SDS011;68211;45.774;15.892;2023-05-10T11:14:37;3.28;;;2.90;;
78860;SDS011;68211;45.774;15.892;2023-05-10T11:17:17;5.55;;;3.35;;
78860;SDS011;68211;45.774;15.892;2023-05-10T11:20:02;3.40;;;3.10;;
78860;SDS011;68211;45.774;15.892;2023-05-10T11:22:29;4.63;;;3.00;;
78860;SDS011;68211;45.774;15.892;2023-05-10T11:25:14;3.67;;;3.08;;
78860;SDS011;68211;45.774;15.892;2023-05-10T11:27:41;3.15;;;2.88;;
78860;SDS011;68211;45.774;15.892;2023-05-10T11:30:10;8.55;;;2.83;;
78860;SDS011;68211;45.774;15.892;2023-05-10T11:35:06;4.80;;;2.50;;
78860;SDS011;68211;45.774;15.892;2023-05-10T11:37:33;3.65;;;2.90;;
78860;SDS011;68211;45.774;15.892;2023-05-10T11:39:59;4.43;;;2.70;;
78860;SDS011;68211;45.774;15.892;2023-05-10T11:42:27;4.70;;;2.70;;
78860;SDS011;68211;45.774;15.892;2023-05-10T11:44:53;6.82;;;2.90;;
78860;SDS011;68211;45.774;15.892;2023-05-10T11:47:21;9.88;;;2.70;;
78860;SDS011;68211;45.774;15.892;2023-05-10T11:49:47;3.60;;;2.90;;
78860;SDS011;68211;45.774;15.892;2023-05-10T11:52:14;4.43;;;2.50;;
78860;SDS011;68211;45.774;15.892;2023-05-10T11:54:44;5.18;;;3.00;;
78860;SDS011;68211;45.774;15.892;2023-05-10T11:57:11;3.00;;;2.80;;
78860;SDS011;68211;45.774;15.892;2023-05-10T11:59:37;5.28;;;2.72;;
78860;SDS011;68211;45.774;15.892;2023-05-10T12:02:05;5.25;;;2.90;;
78860;SDS011;68211;45.774;15.892;2023-05-10T12:04:33;3.40;;;3.10;;
78860;SDS011;68211;45.774;15.892;2023-05-10T12:07:00;6.22;;;3.03;;
78860;SDS011;68211;45.774;15.892;2023-05-10T12:09:26;6.38;;;2.92;;
78860;SDS011;68211;45.774;15.892;2023-05-10T12:12:09;6.63;;;2.72;;
78860;SDS011;68211;45.774;15.892;2023-05-10T12:14:35;6.50;;;2.65;;
78860;SDS011;68211;45.774;15.892;2023-05-10T12:17:02;7.22;;;2.90;;
78860;SDS011;68211;45.774;15.892;2023-05-10T12:19:28;7.97;;;3.05;;
78860;SDS011;68211;45.774;15.892;2023-05-10T12:22:05;3.10;;;2.90;;
78860;SDS011;68211;45.774;15.892;2023-05-10T12:26:58;5.05;;;2.75;;
78860;SDS011;68211;45.774;15.892;2023-05-10T12:29:24;4.78;;;3.00;;
78860;SDS011;68211;45.774;15.892;2023-05-10T12:31:52;8.50;;;3.08;;
78860;SDS011;68211;45.774;15.892;2023-05-10T12:34:25;5.53;;;2.85;;
78860;SDS011;68211;45.774;15.892;2023-05-10T12:36:52;4.72;;;3.70;;
78860;SDS011;68211;45.774;15.892;2023-05-10T12:39:20;5.40;;;3.13;;
78860;SDS011;68211;45.774;15.892;2023-05-10T12:41:46;3.70;;;3.08;;
78860;SDS011;68211;45.774;15.892;2023-05-10T12:44:12;3.50;;;2.90;;
78860;SDS011;68211;45.774;15.892;2023-05-10T12:46:39;4.82;;;3.45;;
78860;SDS011;68211;45.774;15.892;2023-05-10T12:49:05;7.05;;;3.53;;
78860;SDS011;68211;45.774;15.892;2023-05-10T12:51:34;3.50;;;2.90;;
78860;SDS011;68211;45.774;15.892;2023-05-10T12:54:01;4.05;;;3.10;;
78860;SDS011;68211;45.774;15.892;2023-05-10T12:56:29;3.15;;;2.95;;
78860;SDS011;68211;45.774;15.892;2023-05-10T12:58:56;4.15;;;3.17;;
78860;SDS011;68211;45.774;15.892;2023-05-10T13:01:22;4.72;;;2.70;;
78860;SDS011;68211;45.774;15.892;2023-05-10T13:03:49;3.00;;;2.80;;
78860;SDS011;68211;45.774;15.892;2023-05-10T13:06:15;3.95;;;3.00;;
78860;SDS011;68211;45.774;15.892;2023-05-10T13:08:42;6.38;;;2.90;;
78860;SDS011;68211;45.774;15.892;2023-05-10T13:11:08;5.38;;;3.08;;
78860;SDS011;68211;45.774;15.892;2023-05-10T13:13:36;4.07;;;2.92;;
78860;SDS011;68211;45.774;15.892;2023-05-10T13:16:02;4.28;;;2.92;;
78860;SDS011;68211;45.774;15.892;2023-05-10T13:18:29;3.80;;;3.08;;
78860;SDS011;68211;45.774;15.892;2023-05-10T13:20:55;4.50;;;3.10;;
78860;SDS011;68211;45.774;15.892;2023-05-10T13:23:22;3.13;;;2.88;;
78860;SDS011;68211;45.774;15.892;2023-05-10T13:25:48;3.53;;;3.03;;
78860;SDS011;68211;45.774;15.892;2023-05-10T13:28:15;5.35;;;3.10;;
78860;SDS011;68211;45.774;15.892;2023-05-10T13:30:44;4.32;;;3.40;;
78860;SDS011;68211;45.774;15.892;2023-05-10T13:33:11;3.40;;;2.95;;
78860;SDS011;68211;45.774;15.892;2023-05-10T13:35:37;4.70;;;3.15;;
78860;SDS011;68211;45.774;15.892;2023-05-10T13:38:07;5.28;;;3.15;;
78860;SDS011;68211;45.774;15.892;2023-05-10T13:41:00;4.45;;;2.88;;
78860;SDS011;68211;45.774;15.892;2023-05-10T13:43:33;3.00;;;2.72;;
78860;SDS011;68211;45.774;15.892;2023-05-10T13:46:02;3.92;;;3.05;;
78860;SDS011;68211;45.774;15.892;2023-05-10T13:50:57;7.03;;;3.80;;
78860;SDS011;68211;45.774;15.892;2023-05-10T13:53:32;4.60;;;4.20;;
78860;SDS011;68211;45.774;15.892;2023-05-10T13:55:59;5.82;;;4.60;;
78860;SDS011;68211;45.774;15.892;2023-05-10T14:01:27;5.00;;;4.60;;
78860;SDS011;68211;45.774;15.892;2023-05-10T14:03:54;5.55;;;5.05;;
78860;SDS011;68211;45.774;15.892;2023-05-10T14:06:20;5.63;;;5.07;;
78860;SDS011;68211;45.774;15.892;2023-05-10T14:08:47;5.45;;;4.97;;
78860;SDS011;68211;45.774;15.892;2023-05-10T14:11:13;9.13;;;4.80;;
78860;SDS011;68211;45.774;15.892;2023-05-10T14:13:40;6.82;;;4.97;;
78860;SDS011;68211;45.774;15.892;2023-05-10T14:16:06;5.53;;;4.80;;
78860;SDS011;68211;45.774;15.892;2023-05-10T14:18:38;6.78;;;5.30;;
78860;SDS011;68211;45.774;15.892;2023-05-10T14:21:05;5.32;;;4.82;;
78860;SDS011;68211;45.774;15.892;2023-05-10T14:23:34;7.10;;;5.00;;
78860;SDS011;68211;45.774;15.892;2023-05-10T14:26:02;6.07;;;5.25;;
78860;SDS011;68211;45.774;15.892;2023-05-10T14:28:29;10.35;;;5.15;;
78860;SDS011;68211;45.774;15.892;2023-05-10T14:30:59;4.45;;;4.15;;
78860;SDS011;68211;45.774;15.892;2023-05-10T14:33:27;6.10;;;5.10;;
78860;SDS011;68211;45.774;15.892;2023-05-10T14:35:55;5.82;;;4.90;;
78860;SDS011;68211;45.774;15.892;2023-05-10T14:38:22;5.72;;;4.95;;
78860;SDS011;68211;45.774;15.892;2023-05-10T14:40:48;6.72;;;4.65;;
78860;SDS011;68211;45.774;15.892;2023-05-10T14:43:14;5.28;;;4.50;;
78860;SDS011;68211;45.774;15.892;2023-05-10T14:45:41;6.13;;;4.68;;
78860;SDS011;68211;45.774;15.892;2023-05-10T14:48:10;5.78;;;5.32;;
78860;SDS011;68211;45.774;15.892;2023-05-10T14:50:40;6.28;;;4.75;;